createdAt,value
2023-03-13T00:01:40.771Z,99.90
2023-03-13T00:04:09.989Z,99.90
2023-03-13T00:06:42.551Z,99.90
2023-03-13T00:09:14.020Z,99.90
2023-03-13T00:11:42.731Z,99.90
2023-03-13T00:14:12.101Z,99.90
2023-03-13T00:16:40.715Z,99.90
2023-03-13T00:19:10.438Z,99.90
2023-03-13T00:21:41.319Z,99.90
2023-03-13T00:24:13.208Z,99.90
2023-03-13T00:26:41.929Z,99.90
2023-03-13T00:29:10.295Z,99.90
2023-03-13T00:31:39.056Z,99.90
2023-03-13T00:34:07.527Z,99.90
2023-03-13T00:36:39.082Z,99.90
2023-03-13T00:39:08.110Z,99.90
2023-03-13T00:41:38.835Z,99.90
2023-03-13T00:44:08.339Z,99.90
2023-03-13T00:46:38.066Z,99.90
2023-03-13T00:49:07.221Z,99.90
2023-03-13T00:51:39.009Z,99.90
2023-03-13T00:54:10.437Z,99.90
2023-03-13T00:56:38.865Z,99.90
2023-03-13T00:59:07.415Z,99.90
2023-03-13T01:01:38.050Z,99.90
2023-03-13T01:04:10.193Z,99.90
2023-03-13T01:06:42.994Z,99.90
2023-03-13T01:09:16.169Z,99.90
2023-03-13T01:11:47.006Z,99.90
2023-03-13T01:14:18.936Z,99.90
2023-03-13T01:19:17.992Z,99.90
2023-03-13T01:21:48.101Z,99.90
2023-03-13T01:24:19.289Z,99.90
2023-03-13T01:26:48.163Z,99.90
2023-03-13T01:29:17.950Z,99.90
2023-03-13T01:31:46.399Z,99.90
2023-03-13T01:34:14.940Z,99.90
2023-03-13T01:36:43.817Z,99.90
2023-03-13T01:39:12.557Z,99.90
2023-03-13T01:41:42.412Z,99.90
2023-03-13T01:44:24.203Z,99.90
2023-03-13T01:46:54.449Z,99.90
2023-03-13T01:49:28.128Z,99.90
2023-03-13T01:52:23.484Z,99.90
2023-03-13T01:55:17.126Z,99.90
2023-03-13T01:57:55.957Z,99.90
2023-03-13T02:00:31.070Z,99.90
2023-03-13T02:03:08.163Z,99.90
2023-03-13T02:05:38.497Z,99.90
2023-03-13T02:08:15.873Z,99.90
2023-03-13T02:10:52.750Z,99.90
2023-03-13T02:13:24.530Z,99.90
2023-03-13T02:15:53.655Z,99.90
2023-03-13T02:18:22.744Z,99.90
2023-03-13T02:20:58.091Z,99.90
2023-03-13T02:23:36.961Z,99.90
2023-03-13T02:26:10.275Z,99.90
2023-03-13T02:28:40.893Z,99.90
2023-03-13T02:33:45.241Z,99.90
2023-03-13T02:36:19.701Z,99.90
2023-03-13T02:38:56.197Z,99.90
2023-03-13T02:41:28.778Z,99.90
2023-03-13T02:43:59.142Z,99.90
2023-03-13T02:46:27.814Z,99.90
2023-03-13T02:48:58.044Z,99.90
2023-03-13T02:51:37.528Z,99.90
2023-03-13T02:54:10.036Z,99.90
2023-03-13T02:56:48.368Z,99.90
2023-03-13T02:59:16.922Z,99.90
2023-03-13T03:01:47.493Z,99.90
2023-03-13T03:04:15.899Z,99.90
2023-03-13T03:06:47.566Z,99.90
2023-03-13T03:09:16.230Z,99.90
2023-03-13T03:11:46.579Z,99.90
2023-03-13T03:14:18.286Z,99.90
2023-03-13T03:21:46.253Z,99.90
2023-03-13T03:24:14.882Z,99.90
2023-03-13T03:26:43.186Z,99.90
2023-03-13T03:31:52.137Z,99.90
2023-03-13T03:34:20.572Z,99.90
2023-03-13T03:36:53.267Z,99.90
2023-03-13T03:39:21.891Z,99.90
2023-03-13T03:41:50.815Z,99.90
2023-03-13T03:44:20.876Z,99.90
2023-03-13T03:46:57.853Z,99.90
2023-03-13T03:49:28.535Z,99.90
2023-03-13T03:51:56.988Z,99.90
2023-03-13T03:54:31.342Z,99.90
2023-03-13T03:57:01.095Z,99.90
2023-03-13T03:59:31.104Z,99.90
2023-03-13T04:02:13.876Z,99.90
2023-03-13T04:04:43.804Z,99.90
2023-03-13T04:07:17.207Z,99.90
2023-03-13T04:09:46.006Z,99.90
2023-03-13T04:12:22.593Z,99.90
2023-03-13T04:14:55.004Z,99.90
2023-03-13T04:17:23.367Z,99.90
2023-03-13T04:19:51.954Z,99.90
2023-03-13T04:22:20.322Z,99.90
2023-03-13T04:24:52.777Z,99.90
2023-03-13T04:27:23.453Z,99.90
2023-03-13T04:29:54.353Z,99.90
2023-03-13T04:32:38.245Z,99.90
2023-03-13T04:35:33.595Z,99.90
2023-03-13T04:38:25.048Z,99.90
2023-03-13T04:41:16.796Z,99.90
2023-03-13T04:46:49.845Z,99.90
2023-03-13T04:49:32.240Z,99.90
2023-03-13T04:52:10.619Z,99.90
2023-03-13T04:55:11.380Z,99.90
2023-03-13T04:58:01.333Z,99.90
2023-03-13T05:00:50.690Z,99.90
2023-03-13T05:03:33.327Z,99.90
2023-03-13T05:06:10.489Z,99.90
2023-03-13T05:09:17.549Z,99.90
2023-03-13T05:11:58.416Z,99.90
2023-03-13T05:14:55.003Z,99.90
2023-03-13T05:20:25.007Z,99.90
2023-03-13T05:23:10.434Z,99.90
2023-03-13T05:25:57.225Z,99.90
2023-03-13T05:28:43.082Z,99.90
2023-03-13T05:31:17.355Z,99.90
2023-03-13T05:34:02.608Z,99.90
2023-03-13T05:36:50.800Z,99.90
2023-03-13T05:39:36.872Z,99.90
2023-03-13T05:42:28.185Z,99.90
2023-03-13T05:45:23.018Z,99.90
2023-03-13T05:48:20.407Z,99.90
2023-03-13T05:51:18.013Z,99.90
2023-03-13T05:54:17.219Z,99.90
2023-03-13T05:57:06.133Z,99.90
2023-03-13T05:59:53.267Z,99.90
2023-03-13T06:07:41.173Z,99.90
2023-03-13T06:10:13.549Z,99.90
2023-03-13T06:15:13.807Z,99.90
2023-03-13T06:18:01.524Z,99.90
2023-03-13T06:20:30.015Z,99.90
2023-03-13T06:22:58.772Z,99.90
2023-03-13T06:25:29.108Z,99.90
2023-03-13T06:27:57.507Z,99.90
2023-03-13T06:30:26.440Z,99.90
2023-03-13T06:32:54.946Z,99.90
2023-03-13T06:35:23.444Z,99.90
2023-03-13T06:37:51.923Z,99.90
2023-03-13T06:40:20.725Z,99.90
2023-03-13T06:42:51.685Z,99.90
2023-03-13T06:45:20.264Z,99.90
2023-03-13T06:47:52.734Z,99.90
2023-03-13T06:50:21.296Z,99.90
2023-03-13T06:52:49.879Z,99.90
2023-03-13T06:55:18.470Z,99.90
2023-03-13T06:57:52.394Z,99.90
2023-03-13T07:00:22.191Z,99.90
2023-03-13T07:02:51.707Z,99.90
2023-03-13T07:05:20.373Z,99.90
2023-03-13T07:07:52.033Z,99.90
2023-03-13T07:10:20.960Z,99.90
2023-03-13T07:12:49.899Z,99.90
2023-03-13T07:15:20.150Z,99.90
2023-03-13T07:17:48.626Z,99.90
2023-03-13T07:20:17.913Z,99.90
2023-03-13T07:22:51.950Z,99.90
2023-03-13T07:25:20.640Z,99.90
2023-03-13T07:27:53.600Z,99.90
2023-03-13T07:30:23.757Z,99.90
2023-03-13T07:32:52.273Z,99.90
2023-03-13T07:37:49.695Z,99.90
2023-03-13T07:40:18.690Z,99.90
2023-03-13T07:42:47.170Z,99.90
2023-03-13T07:45:15.661Z,99.90
2023-03-13T07:47:49.042Z,99.90
2023-03-13T07:50:18.385Z,99.90
2023-03-13T07:52:47.012Z,99.90
2023-03-13T07:55:15.498Z,99.90
2023-03-13T07:57:43.956Z,99.90
2023-03-13T08:00:16.664Z,99.90
2023-03-13T08:02:47.001Z,99.90
2023-03-13T08:05:15.881Z,99.90
2023-03-13T08:07:46.110Z,99.90
2023-03-13T08:10:14.607Z,99.90
2023-03-13T08:12:43.027Z,99.90
2023-03-13T08:15:12.158Z,99.90
2023-03-13T08:17:40.631Z,99.90
2023-03-13T08:20:12.816Z,99.90
2023-03-13T08:22:41.300Z,99.90
2023-03-13T08:25:10.284Z,99.90
2023-03-13T08:27:38.964Z,99.90
2023-03-13T08:30:09.702Z,99.90
2023-03-13T08:32:38.610Z,99.90
2023-03-13T08:35:08.417Z,99.90
2023-03-13T08:37:38.319Z,99.90
2023-03-13T08:40:11.475Z,99.90
2023-03-13T08:42:40.707Z,99.90
2023-03-13T08:45:10.676Z,99.90
2023-03-13T08:47:39.109Z,99.90
2023-03-13T08:50:08.822Z,99.90
2023-03-13T08:52:38.633Z,99.90
2023-03-13T08:55:09.265Z,99.90
2023-03-13T08:57:37.746Z,99.90
2023-03-13T09:00:08.100Z,99.90
2023-03-13T09:02:36.639Z,99.90
2023-03-13T09:05:06.092Z,99.90
2023-03-13T09:07:34.850Z,99.90
2023-03-13T09:10:05.606Z,99.90
2023-03-13T09:12:34.304Z,99.90
2023-03-13T09:15:06.686Z,99.90
2023-03-13T09:17:35.441Z,99.90
2023-03-13T09:20:04.770Z,99.90
2023-03-13T09:22:36.797Z,99.90
2023-03-13T09:25:07.851Z,99.90
2023-03-13T09:27:36.334Z,99.90
2023-03-13T09:30:05.431Z,99.90
2023-03-13T09:32:34.205Z,99.90
2023-03-13T09:35:02.679Z,99.90
2023-03-13T09:37:31.315Z,99.90
2023-03-13T09:40:01.091Z,99.90
2023-03-13T09:42:45.142Z,99.90
2023-03-13T09:45:20.940Z,99.90
2023-03-13T09:47:56.360Z,99.90
2023-03-13T09:50:31.256Z,99.90
2023-03-13T09:53:12.952Z,99.90
2023-03-13T09:55:46.067Z,99.90
2023-03-13T09:58:23.014Z,99.90
2023-03-13T10:00:58.622Z,99.90
2023-03-13T10:03:33.188Z,99.90
2023-03-13T10:06:07.961Z,99.90
2023-03-13T10:08:38.174Z,99.90
2023-03-13T10:11:12.974Z,99.90
2023-03-13T10:13:52.501Z,99.90
2023-03-13T10:16:33.485Z,99.90
2023-03-13T10:19:15.887Z,99.90
2023-03-13T10:21:50.629Z,99.90
2023-03-13T10:24:35.274Z,99.90
2023-03-13T10:27:03.923Z,99.90
2023-03-13T10:29:33.703Z,99.90
2023-03-13T10:32:04.951Z,99.90
2023-03-13T10:34:54.205Z,99.90
2023-03-13T10:37:26.812Z,99.90
2023-03-13T10:39:56.779Z,99.90
2023-03-13T10:42:33.553Z,99.90
2023-03-13T10:45:07.601Z,99.90
2023-03-13T10:47:37.378Z,99.90
2023-03-13T10:50:06.801Z,99.90
2023-03-13T10:52:44.104Z,99.90
2023-03-13T10:55:15.216Z,99.90
2023-03-13T10:58:00.391Z,99.90
2023-03-13T11:00:38.731Z,99.90
2023-03-13T11:03:17.892Z,99.90
2023-03-13T11:05:57.928Z,99.90
2023-03-13T11:08:29.141Z,99.90
2023-03-13T11:11:02.090Z,99.90
2023-03-13T11:13:42.840Z,99.90
2023-03-13T11:16:21.622Z,99.90
2023-03-13T11:19:17.735Z,99.90
2023-03-13T11:22:13.156Z,99.90
2023-03-13T11:24:51.151Z,99.90
2023-03-13T11:27:31.758Z,99.90
2023-03-13T11:30:17.753Z,99.90
2023-03-13T11:32:55.993Z,99.90
2023-03-13T11:35:43.944Z,99.90
2023-03-13T11:38:21.848Z,99.90
2023-03-13T11:41:02.423Z,99.90
2023-03-13T11:43:58.044Z,99.90
2023-03-13T11:46:46.893Z,99.90
2023-03-13T11:49:44.991Z,99.90
2023-03-13T11:52:48.803Z,99.90
2023-03-13T11:55:34.470Z,99.90
2023-03-13T11:58:37.048Z,99.90
2023-03-13T12:01:13.375Z,99.90
2023-03-13T12:03:55.616Z,99.90
2023-03-13T12:06:33.115Z,99.90
2023-03-13T12:09:12.161Z,99.90
2023-03-13T12:11:59.591Z,99.90
2023-03-13T12:14:38.108Z,99.90
2023-03-13T12:17:13.659Z,99.90
2023-03-13T12:19:53.920Z,99.90
2023-03-13T12:22:34.039Z,99.90
2023-03-13T12:25:07.572Z,99.90
2023-03-13T12:27:43.813Z,99.90
2023-03-13T12:30:29.031Z,99.80
2023-03-13T12:33:09.890Z,99.90
2023-03-13T12:35:43.522Z,99.90
2023-03-13T12:38:24.082Z,99.90
2023-03-13T12:41:06.327Z,99.90
2023-03-13T12:43:40.758Z,99.90
2023-03-13T12:46:36.038Z,99.90
2023-03-13T12:50:00.527Z,99.90
2023-03-13T12:52:59.162Z,99.90
2023-03-13T12:56:20.871Z,99.90
2023-03-13T12:58:54.498Z,99.90
2023-03-13T13:01:34.704Z,99.90
2023-03-13T13:04:08.179Z,99.90
2023-03-13T13:06:59.473Z,99.90
2023-03-13T13:09:32.943Z,99.50
2023-03-13T13:12:20.031Z,99.40
2023-03-13T13:15:06.062Z,99.90
2023-03-13T13:17:54.934Z,99.90
2023-03-13T13:20:40.862Z,99.00
2023-03-13T13:23:39.312Z,99.60
2023-03-13T13:26:49.741Z,99.30
2023-03-13T13:29:59.860Z,99.40
2023-03-13T13:32:50.152Z,99.90
2023-03-13T13:35:37.007Z,99.90
2023-03-13T13:38:36.961Z,99.10
2023-03-13T13:41:28.297Z,95.90
2023-03-13T13:44:30.944Z,93.10
2023-03-13T13:47:02.270Z,90.00
2023-03-13T13:49:55.332Z,87.50
2023-03-13T13:52:42.924Z,90.30
2023-03-13T13:55:45.367Z,89.50
2023-03-13T13:58:20.491Z,84.40
2023-03-13T14:00:57.314Z,82.80
2023-03-13T14:03:30.663Z,81.10
2023-03-13T14:06:06.198Z,79.20
2023-03-13T14:08:40.263Z,79.30
2023-03-13T14:11:26.569Z,78.20
2023-03-13T14:14:19.695Z,78.90
2023-03-13T14:16:51.225Z,79.10
2023-03-13T14:19:30.494Z,80.90
2023-03-13T14:22:09.164Z,82.00
2023-03-13T14:24:39.301Z,78.40
2023-03-13T14:27:18.352Z,78.60
2023-03-13T14:30:02.256Z,77.50
2023-03-13T14:32:30.988Z,75.90
2023-03-13T14:35:00.900Z,74.80
2023-03-13T14:37:38.069Z,74.70
2023-03-13T14:40:20.370Z,73.20
2023-03-13T14:42:52.227Z,70.40
2023-03-13T14:45:29.232Z,70.70
2023-03-13T14:48:04.059Z,71.20
2023-03-13T14:50:36.529Z,72.40
2023-03-13T14:53:14.129Z,71.70
2023-03-13T14:55:42.695Z,72.70
2023-03-13T14:58:29.714Z,73.50
2023-03-13T15:01:00.063Z,73.60
2023-03-13T15:03:34.064Z,75.90
2023-03-13T15:06:25.616Z,77.20
2023-03-13T15:09:17.238Z,79.30
2023-03-13T15:12:00.420Z,84.50
2023-03-13T15:14:41.087Z,86.90
2023-03-13T15:17:22.493Z,88.80
2023-03-13T15:19:54.192Z,87.20
2023-03-13T15:22:30.484Z,82.80
2023-03-13T15:25:07.873Z,81.90
2023-03-13T15:27:36.884Z,82.60
2023-03-13T15:30:07.046Z,82.70
2023-03-13T15:32:39.346Z,82.50
2023-03-13T15:35:28.819Z,83.50
2023-03-13T15:38:00.904Z,82.00
2023-03-13T15:40:30.898Z,79.80
2023-03-13T15:43:00.370Z,83.30
2023-03-13T15:45:29.479Z,82.30
2023-03-13T15:53:01.855Z,88.10
2023-03-13T15:55:31.545Z,90.30
2023-03-13T15:58:00.002Z,90.90
2023-03-13T16:00:28.910Z,93.10
2023-03-13T16:02:57.370Z,92.60
2023-03-13T16:05:26.288Z,93.50
2023-03-13T16:07:55.315Z,95.60
2023-03-13T16:10:29.185Z,97.90
2023-03-13T16:12:57.617Z,99.30
2023-03-13T16:15:26.004Z,99.90
2023-03-13T16:17:54.539Z,99.90
2023-03-13T16:20:26.580Z,99.90
2023-03-13T16:25:26.617Z,99.90
2023-03-13T16:27:56.412Z,99.90
2023-03-13T16:30:27.987Z,99.90
2023-03-13T16:32:56.411Z,99.90
2023-03-13T16:35:26.759Z,99.90
2023-03-13T16:40:31.442Z,99.90
2023-03-13T16:43:00.662Z,99.90
2023-03-13T16:45:29.551Z,99.90
2023-03-13T16:48:01.104Z,99.90
2023-03-13T16:50:36.432Z,99.90
2023-03-13T16:53:05.172Z,99.90
2023-03-13T16:55:36.991Z,99.90
2023-03-13T16:58:05.857Z,99.90
2023-03-13T17:00:34.813Z,99.90
2023-03-13T17:03:03.289Z,99.90
2023-03-13T17:05:32.026Z,99.90
2023-03-13T17:10:35.948Z,99.90
2023-03-13T17:15:34.513Z,99.90
2023-03-13T17:18:03.231Z,99.90
2023-03-13T17:20:31.931Z,99.90
2023-03-13T17:23:01.151Z,99.90
2023-03-13T17:25:30.083Z,99.90
2023-03-13T17:28:00.287Z,99.90
2023-03-13T17:30:32.293Z,99.90
2023-03-13T17:33:01.036Z,99.90
2023-03-13T17:35:29.687Z,99.90
2023-03-13T17:37:58.147Z,99.90
2023-03-13T17:40:31.272Z,99.90
2023-03-13T17:43:01.071Z,99.90
2023-03-13T17:45:30.928Z,99.90
2023-03-13T17:47:59.358Z,99.90
2023-03-13T17:50:29.559Z,99.90
2023-03-13T17:52:58.145Z,99.90
2023-03-13T17:55:26.626Z,99.90
2023-03-13T17:57:55.189Z,99.90
2023-03-13T18:00:31.925Z,99.90
2023-03-13T18:03:01.993Z,99.90
2023-03-13T18:05:30.589Z,99.90
2023-03-13T18:07:59.406Z,99.90
2023-03-13T18:10:31.223Z,99.90
2023-03-13T18:13:00.053Z,99.90
2023-03-13T18:15:30.578Z,99.90
2023-03-13T18:17:59.088Z,99.90
2023-03-13T18:20:31.832Z,99.90
2023-03-13T18:23:00.877Z,99.90
2023-03-13T18:25:30.684Z,99.90
2023-03-13T18:27:59.556Z,99.90
2023-03-13T18:30:30.222Z,99.90
2023-03-13T18:32:58.772Z,99.90
2023-03-13T18:35:27.600Z,99.90
2023-03-13T18:37:56.346Z,99.90
2023-03-13T18:40:29.423Z,99.90
2023-03-13T18:42:58.609Z,99.90
2023-03-13T18:45:28.257Z,99.90
2023-03-13T18:47:58.746Z,99.90
2023-03-13T18:50:30.739Z,99.90
2023-03-13T18:53:01.263Z,99.90
2023-03-13T18:55:35.860Z,99.90
2023-03-13T18:58:04.525Z,99.90
2023-03-13T19:00:35.001Z,99.90
2023-03-13T19:03:04.967Z,99.90
2023-03-13T19:05:33.568Z,99.90
2023-03-13T19:08:02.157Z,99.90
2023-03-13T19:10:32.590Z,99.90
2023-03-13T19:13:01.237Z,99.90
2023-03-13T19:15:32.951Z,99.90
2023-03-13T19:18:03.917Z,99.90
2023-03-13T19:20:34.153Z,99.90
2023-03-13T19:23:02.629Z,99.90
2023-03-13T19:25:31.084Z,99.90
2023-03-13T19:27:59.960Z,99.90
2023-03-13T19:32:57.778Z,99.90
2023-03-13T19:35:26.245Z,99.90
2023-03-13T19:37:56.013Z,99.90
2023-03-13T19:40:28.712Z,99.90
2023-03-13T19:42:57.263Z,99.90
2023-03-13T19:45:26.470Z,99.90
2023-03-13T19:47:54.968Z,99.90
2023-03-13T19:50:27.633Z,99.90
2023-03-13T19:52:57.648Z,99.90
2023-03-13T19:55:26.162Z,99.90
2023-03-13T19:57:54.668Z,99.90
2023-03-13T20:00:31.865Z,99.90
2023-03-13T20:03:00.435Z,99.90
2023-03-13T20:07:59.205Z,99.90
2023-03-13T20:10:27.792Z,99.90
2023-03-13T20:12:56.252Z,99.90
2023-03-13T20:15:25.275Z,99.90
2023-03-13T20:20:22.707Z,99.90
2023-03-13T20:22:51.419Z,99.90
2023-03-13T20:25:24.106Z,99.90
2023-03-13T20:27:53.563Z,99.90
2023-03-13T20:30:23.037Z,99.90
2023-03-13T20:32:59.345Z,99.90
2023-03-13T20:35:33.234Z,99.90
2023-03-13T20:38:01.886Z,99.90
2023-03-13T20:40:31.804Z,99.90
2023-03-13T20:43:01.035Z,99.90
2023-03-13T20:45:31.025Z,99.90
2023-03-13T20:47:59.946Z,99.90
2023-03-13T20:50:29.046Z,99.90
2023-03-13T20:52:57.576Z,99.90
2023-03-13T20:55:26.091Z,99.90
2023-03-13T20:57:55.855Z,99.90
2023-03-13T21:00:28.569Z,99.90
2023-03-13T21:02:57.416Z,99.90
2023-03-13T21:05:26.130Z,99.90
2023-03-13T21:07:54.711Z,99.90
2023-03-13T21:10:23.622Z,99.90
2023-03-13T21:12:52.225Z,99.90
2023-03-13T21:15:22.431Z,99.90
2023-03-13T21:17:50.793Z,99.90
2023-03-13T21:20:19.433Z,99.90
2023-03-13T21:22:48.365Z,99.90
2023-03-13T21:25:17.256Z,99.90
2023-03-13T21:27:49.424Z,99.90
2023-03-13T21:30:20.343Z,99.90
2023-03-13T21:32:50.231Z,99.90
2023-03-13T21:35:19.167Z,99.90
2023-03-13T21:37:47.657Z,99.90
2023-03-13T21:40:16.677Z,99.90
2023-03-13T21:42:45.210Z,99.90
2023-03-13T21:45:13.936Z,99.90
2023-03-13T21:47:42.399Z,99.90
2023-03-13T21:50:14.367Z,99.90
2023-03-13T21:52:42.928Z,99.90
2023-03-13T21:55:14.596Z,99.90
2023-03-13T21:57:43.276Z,99.90
2023-03-13T22:02:43.435Z,99.90
2023-03-13T22:05:13.626Z,99.90
2023-03-13T22:07:42.068Z,99.90
2023-03-13T22:10:12.831Z,99.90
2023-03-13T22:12:41.414Z,99.90
2023-03-13T22:15:12.353Z,99.90
2023-03-13T22:17:40.837Z,99.90
2023-03-13T22:20:12.997Z,99.90
2023-03-13T22:22:41.477Z,99.90
2023-03-13T22:25:11.052Z,99.90
2023-03-13T22:27:39.656Z,99.90
2023-03-13T22:30:10.405Z,99.90
2023-03-13T22:35:09.888Z,99.90
2023-03-13T22:37:40.076Z,99.90
2023-03-13T22:42:38.463Z,99.90
2023-03-13T22:45:08.542Z,99.90
2023-03-13T22:47:37.156Z,99.90
2023-03-13T22:50:06.656Z,99.90
2023-03-13T22:52:35.158Z,99.90
2023-03-13T22:55:06.200Z,99.90
2023-03-13T23:00:03.538Z,99.90
2023-03-13T23:02:32.468Z,99.90
2023-03-13T23:07:32.443Z,99.90
2023-03-13T23:10:01.110Z,99.90
2023-03-13T23:12:31.075Z,99.90
2023-03-13T23:17:33.588Z,99.90
2023-03-13T23:20:02.380Z,99.90
2023-03-13T23:22:33.006Z,99.90
2023-03-13T23:25:02.337Z,99.90
2023-03-13T23:27:33.127Z,99.90
2023-03-13T23:30:04.302Z,99.90
2023-03-13T23:32:37.038Z,99.90
2023-03-13T23:35:07.285Z,99.90
2023-03-13T23:37:36.697Z,99.90
2023-03-13T23:40:10.586Z,99.90
2023-03-13T23:45:10.216Z,99.90
2023-03-13T23:47:39.218Z,99.90
2023-03-13T23:50:08.410Z,99.90
2023-03-13T23:52:37.195Z,99.90
2023-03-13T23:55:07.544Z,99.90
2023-03-13T23:57:37.684Z,99.90
